Time;durP1;ratioP1;P1;durP2;ratioP2;P2;SDS_P1;SDS_P2;PMS_P1;PMS_P2;Temp;Humidity;BMP_temperature;BMP_pressure;BME280_temperature;BME280_humidity;BME280_pressure;Samples;Min_cycle;Max_cycle;Signal;HPM_P1;HPM_P2
2023/10/08 00:01:14;;;;;;;5.85;2.38;;;;;;;10.54;100.00;101614.13;4988376;28;20506;-57
2023/10/08 00:03:48;;;;;;;5.22;1.75;;;;;;;10.63;97.31;101598.47;4997297;28;20373;-58
2023/10/08 00:06:20;;;;;;;6.47;2.13;;;;;;;10.68;94.84;101607.22;4986648;28;20049;-58
2023/10/08 00:08:59;;;;;;;3.45;2.05;;;;;;;10.72;93.13;101603.75;4988488;28;20060;-58
2023/10/08 00:11:31;;;;;;;5.28;2.08;;;;;;;10.91;91.90;101603.84;4960192;28;20056;-58
2023/10/08 00:14:04;;;;;;;5.25;2.20;;;;;;;11.04;89.62;101600.41;4973977;28;20134;-58
2023/10/08 00:16:35;;;;;;;3.97;1.77;;;;;;;11.19;87.24;101595.19;4971573;28;20062;-58
2023/10/08 00:19:12;;;;;;;3.60;1.75;;;;;;;11.29;86.30;101605.69;4983410;28;20069;-57
2023/10/08 00:21:45;;;;;;;3.22;1.95;;;;;;;11.34;85.71;101593.50;4988484;28;20515;-59
2023/10/08 00:24:15;;;;;;;4.60;1.65;;;;;;;11.39;83.56;101591.75;4964033;28;20402;-58
2023/10/08 00:26:48;;;;;;;2.58;1.50;;;;;;;11.56;83.03;101589.16;4987903;28;20058;-58
2023/10/08 00:29:21;;;;;;;4.10;1.60;;;;;;;11.65;82.30;101595.25;4970026;28;20065;-57
2023/10/08 00:31:52;;;;;;;1.83;1.23;;;;;;;11.76;80.74;101586.56;4978167;28;20062;-59
2023/10/08 00:34:22;;;;;;;2.63;1.40;;;;;;;11.85;79.67;101576.06;4971435;28;20049;-59
2023/10/08 00:36:53;;;;;;;2.90;1.45;;;;;;;11.92;79.37;101583.06;4976745;28;20138;-57
2023/10/08 00:39:33;;;;;;;5.07;1.92;;;;;;;12.03;77.62;101575.19;4966987;28;20062;-59
2023/10/08 00:42:07;;;;;;;3.45;1.80;;;;;;;11.94;77.64;101523.69;4976386;28;20469;-58
2023/10/08 00:44:48;;;;;;;2.28;1.20;;;;;;;12.27;74.26;101563.78;4964183;28;20057;-58
2023/10/08 00:47:23;;;;;;;1.48;1.00;;;;;;;11.98;72.81;101514.97;4971572;28;20514;-59
2023/10/08 00:50:06;;;;;;;1.92;0.95;;;;;;;12.31;74.09;101562.94;4987246;28;20041;-60
2023/10/08 00:52:42;;;;;;;6.13;1.90;;;;;;;12.37;76.07;101559.41;4974109;28;20057;-60
2023/10/08 00:55:28;;;;;;;6.90;1.83;;;;;;;12.45;74.98;101563.72;4971510;28;20144;-60
2023/10/08 00:58:08;;;;;;;6.25;1.48;;;;;;;12.44;72.09;101562.00;4977360;28;20057;-58
2023/10/08 01:00:40;;;;;;;5.35;1.60;;;;;;;12.47;71.50;101559.34;4970803;28;20115;-59
2023/10/08 01:03:16;;;;;;;4.13;2.10;;;;;;;12.55;72.51;101563.72;4975879;28;20058;-60
2023/10/08 01:05:48;;;;;;;6.03;1.90;;;;;;;12.69;74.68;101561.91;4992246;28;20158;-60
2023/10/08 01:08:35;;;;;;;8.50;2.40;;;;;;;12.78;73.86;101556.63;4974675;28;20058;-58
2023/10/08 01:11:26;;;;;;;4.03;1.60;;;;;;;12.84;73.27;101551.34;4985281;28;20104;-58
2023/10/08 01:13:58;;;;;;;4.05;1.80;;;;;;;12.91;72.56;101547.81;4981689;28;20058;-58
2023/10/08 01:16:32;;;;;;;2.72;1.55;;;;;;;13.08;73.30;101554.69;4972571;28;20063;-59
2023/10/08 01:19:04;;;;;;;2.25;1.52;;;;;;;13.22;71.14;101547.59;4980451;28;20073;-59
2023/10/08 01:21:39;;;;;;;4.10;1.75;;;;;;;13.26;71.69;101551.97;4963804;28;20054;-58
2023/10/08 01:24:16;;;;;;;8.40;1.92;;;;;;;13.24;71.45;101545.84;4976094;28;20079;-59
2023/10/08 01:26:46;;;;;;;5.93;2.43;;;;;;;13.09;70.89;101553.84;4972829;28;20577;-59
2023/10/08 01:29:20;;;;;;;3.33;1.85;;;;;;;13.00;71.47;101551.25;4972833;28;20312;-61
2023/10/08 01:31:53;;;;;;;5.53;1.83;;;;;;;12.91;71.08;101542.56;4983187;28;20060;-58
2023/10/08 01:34:27;;;;;;;3.20;1.88;;;;;;;12.82;68.49;101537.34;4972564;28;20285;-60
2023/10/08 01:37:04;;;;;;;8.20;2.20;;;;;;;12.95;71.96;101533.81;4985161;28;20486;-59
2023/10/08 01:39:39;;;;;;;3.07;1.97;;;;;;;13.21;69.63;101535.38;4974639;28;20276;-60
2023/10/08 01:42:16;;;;;;;3.90;2.00;;;;;;;13.12;69.61;101532.81;4967678;28;20348;-59
2023/10/08 01:44:48;;;;;;;6.73;2.50;;;;;;;13.16;71.49;101526.66;4983572;28;20756;-58
2023/10/08 01:47:19;;;;;;;5.17;2.10;;;;;;;13.14;72.03;101520.56;4976527;28;20375;-59
2023/10/08 01:49:50;;;;;;;7.10;2.80;;;;;;;13.38;71.07;101523.03;4990755;28;20285;-59
2023/10/08 01:52:21;;;;;;;6.63;2.30;;;;;;;13.89;71.77;101517.31;4971035;28;20725;-60
2023/10/08 01:54:55;;;;;;;4.10;1.97;;;;;;;14.11;68.13;101514.47;4988610;28;20296;-56
2023/10/08 01:57:25;;;;;;;5.73;2.00;;;;;;;14.18;67.87;101511.75;4968269;28;20408;-58
2023/10/08 01:59:56;;;;;;;6.80;2.83;;;;;;;14.32;67.73;101514.22;4981191;28;20375;-60
2023/10/08 02:02:26;;;;;;;3.87;1.90;;;;;;;14.38;65.54;101508.03;4969951;28;20288;-59
2023/10/08 02:04:56;;;;;;;5.30;3.10;;;;;;;14.38;66.48;101502.78;4982579;28;20293;-61
2023/10/08 02:07:28;;;;;;;6.40;2.80;;;;;;;14.46;66.52;101500.91;4970704;28;20371;-59
2023/10/08 02:10:00;;;;;;;3.03;1.70;;;;;;;14.44;64.60;101500.06;4990609;28;21277;-60
2023/10/08 02:12:30;;;;;;;3.20;1.63;;;;;;;14.44;63.54;101497.44;4980480;28;20577;-60
2023/10/08 02:15:02;;;;;;;5.30;1.83;;;;;;;14.40;60.63;101498.34;4978548;28;20285;-60
2023/10/08 02:17:33;;;;;;;5.07;2.07;;;;;;;14.49;60.54;101490.34;4960426;28;20289;-60
2023/10/08 02:20:05;;;;;;;7.17;2.03;;;;;;;14.63;58.64;101493.72;4990210;28;20303;-62
2023/10/08 02:22:35;;;;;;;2.93;1.60;;;;;;;14.79;59.62;101488.22;4968707;28;20281;-61
2023/10/08 02:25:11;;;;;;;4.47;1.80;;;;;;;14.91;58.33;101488.06;4979235;28;20649;-62
2023/10/08 02:27:42;;;;;;;5.53;2.10;;;;;;;14.90;58.67;101475.75;4969037;28;20687;-58
2023/10/08 02:30:13;;;;;;;3.37;1.70;;;;;;;15.12;58.49;101481.56;4976614;28;20366;-59
2023/10/08 02:32:43;;;;;;;8.23;2.10;;;;;;;15.21;57.16;101499.00;4982350;28;20292;-59
2023/10/08 02:35:14;;;;;;;4.00;2.07;;;;;;;14.82;56.39;101461.88;4970882;28;20296;-61
2023/10/08 02:37:45;;;;;;;4.83;1.83;;;;;;;14.72;56.43;101470.78;4985030;28;20284;-61
2023/10/08 02:40:19;;;;;;;7.77;2.60;;;;;;;14.65;55.68;101464.72;4977654;28;20377;-62
2023/10/08 02:42:50;;;;;;;5.00;2.23;;;;;;;14.70;58.14;101462.91;4978448;28;20316;-61
2023/10/08 02:45:21;;;;;;;8.37;1.70;;;;;;;14.64;55.31;101457.75;4971668;28;20303;-60
2023/10/08 02:47:52;;;;;;;6.00;2.20;;;;;;;14.64;58.14;101458.59;4979715;28;20265;-61
2023/10/08 02:50:23;;;;;;;5.93;1.93;;;;;;;14.71;59.13;101455.91;4971663;28;21005;-60
2023/10/08 02:52:54;;;;;;;3.77;2.33;;;;;;;14.76;57.55;101461.97;4989660;28;20310;-60
2023/10/08 02:55:33;;;;;;;5.13;1.97;;;;;;;14.75;57.67;101454.94;4971448;28;20297;-61
2023/10/08 02:58:04;;;;;;;6.37;2.13;;;;;;;14.67;55.55;101453.28;4978061;28;20306;-60
2023/10/08 03:00:35;;;;;;;3.17;1.70;;;;;;;14.51;54.69;101457.00;4978602;28;20315;-60
2023/10/08 03:03:15;;;;;;;3.97;1.67;;;;;;;14.39;54.39;101451.91;4975564;28;20289;-61
2023/10/08 03:05:47;;;;;;;3.37;1.80;;;;;;;14.45;57.34;101447.47;4971750;28;20290;-60
2023/10/08 03:08:20;;;;;;;3.73;1.60;;;;;;;14.64;57.93;101441.97;4977723;28;20786;-61
2023/10/08 03:10:55;;;;;;;3.23;1.80;;;;;;;14.58;58.31;101403.47;4983079;28;20293;-62
2023/10/08 03:13:27;;;;;;;4.30;1.93;;;;;;;14.94;54.03;101432.72;4963970;28;20291;-61
2023/10/08 03:16:08;;;;;;;7.83;2.73;;;;;;;14.84;55.94;101429.38;4973781;28;20299;-62
2023/10/08 03:18:42;;;;;;;4.47;2.40;;;;;;;15.04;55.63;101431.69;4967900;28;20291;-59
2023/10/08 03:21:43;;;;;;;3.20;1.87;;;;;;;14.75;53.33;101424.28;4975529;28;20343;-60
2023/10/08 03:24:29;;;;;;;3.67;1.90;;;;;;;14.77;55.28;101426.84;4966994;28;20376;-60
2023/10/08 03:27:07;;;;;;;4.30;1.60;;;;;;;14.77;56.30;101411.94;4984257;28;20276;-63
2023/10/08 03:29:41;;;;;;;4.93;2.00;;;;;;;14.89;56.74;101417.00;4955675;28;20296;-65
2023/10/08 03:32:17;;;;;;;5.27;2.30;;;;;;;14.53;55.19;101355.34;4976561;28;20297;-58
2023/10/08 03:34:48;;;;;;;5.17;1.90;;;;;;;14.73;52.96;101404.13;4979438;28;20415;-60
2023/10/08 03:37:29;;;;;;;5.00;1.50;;;;;;;14.50;52.33;101413.19;4971796;28;20297;-60
2023/10/08 03:40:07;;;;;;;5.40;1.90;;;;;;;14.51;53.94;101414.94;4981945;28;20312;-60
2023/10/08 03:42:41;;;;;;;5.25;1.75;;;;;;;14.67;54.59;101408.56;4960742;28;20276;-64
2023/10/08 03:45:16;;;;;;;3.30;1.80;;;;;;;14.03;52.37;101317.47;4970003;28;20068;-61
2023/10/08 03:47:56;;;;;;;2.67;1.57;;;;;;;14.59;52.28;101407.81;4980562;28;20299;-62
2023/10/08 03:50:32;;;;;;;7.40;2.10;;;;;;;14.66;56.04;101401.59;4970999;28;20515;-62
2023/10/08 03:53:03;;;;;;;4.50;2.13;;;;;;;14.77;51.54;101401.41;4979121;28;20408;-61
2023/10/08 03:55:35;;;;;;;4.03;2.07;;;;;;;14.74;52.57;101400.59;4967154;28;20739;-61
2023/10/08 03:58:11;;;;;;;2.90;1.60;;;;;;;14.85;51.98;101404.81;4980534;28;20399;-60
2023/10/08 04:00:45;;;;;;;7.77;1.77;;;;;;;14.93;53.84;101395.94;4970165;28;20324;-60
2023/10/08 04:03:23;;;;;;;5.47;2.10;;;;;;;14.96;55.01;101395.88;4971931;28;20368;-62
2023/10/08 04:06:06;;;;;;;4.27;2.00;;;;;;;15.01;52.54;101388.78;4978095;28;20293;-60
2023/10/08 04:08:58;;;;;;;6.10;1.67;;;;;;;14.89;53.78;101379.31;4969902;28;20371;-60
2023/10/08 04:11:32;;;;;;;4.37;1.70;;;;;;;14.96;52.09;101380.94;4968163;28;20333;-60
2023/10/08 04:14:04;;;;;;;5.07;2.30;;;;;;;14.54;50.79;101329.91;4979006;28;20285;-61
2023/10/08 04:16:37;;;;;;;4.23;1.73;;;;;;;14.36;50.04;101341.53;4974556;28;20484;-60
2023/10/08 04:19:07;;;;;;;4.47;2.00;;;;;;;14.56;50.83;101384.22;4976661;28;20317;-60
2023/10/08 04:21:39;;;;;;;2.70;1.50;;;;;;;14.48;49.36;101383.44;4971316;28;20283;-59
2023/10/08 04:24:10;;;;;;;16.43;2.60;;;;;;;14.51;51.07;101379.88;4972299;28;21126;-61
2023/10/08 04:26:41;;;;;;;4.33;1.73;;;;;;;14.57;50.39;101378.03;4981397;28;20388;-60
2023/10/08 04:29:16;;;;;;;3.57;1.70;;;;;;;14.55;51.13;101373.69;4970935;28;23242;-61
2023/10/08 04:31:54;;;;;;;3.53;1.87;;;;;;;14.62;50.28;101381.47;4979100;28;20386;-60
2023/10/08 04:34:26;;;;;;;3.37;1.50;;;;;;;14.60;49.17;101383.28;4969194;28;20289;-62
2023/10/08 04:37:00;;;;;;;5.87;1.60;;;;;;;14.58;49.89;101374.53;4985720;28;20295;-60
2023/10/08 04:39:33;;;;;;;4.40;1.70;;;;;;;14.62;49.46;101376.22;4966813;28;20300;-61
2023/10/08 04:42:07;;;;;;;4.17;1.70;;;;;;;14.35;51.63;101329.25;4984262;28;20408;-63
2023/10/08 04:44:40;;;;;;;5.67;2.20;;;;;;;14.67;52.55;101366.47;4974088;28;20281;-63
2023/10/08 04:47:31;;;;;;;2.80;1.60;;;;;;;14.73;53.05;101372.56;4981910;28;20323;-65
2023/10/08 04:50:04;;;;;;;4.07;2.10;;;;;;;14.55;51.61;101369.34;4977222;28;20292;-60
2023/10/08 04:52:45;;;;;;;4.07;1.60;;;;;;;14.56;52.21;101371.06;4981839;28;20924;-61
2023/10/08 04:55:20;;;;;;;5.03;2.20;;;;;;;14.50;53.13;101386.88;4973205;28;20287;-61
2023/10/08 04:57:52;;;;;;;3.10;1.83;;;;;;;14.56;53.82;101365.78;4991881;28;20285;-62
2023/10/08 05:00:41;;;;;;;7.87;2.70;;;;;;;14.60;50.57;101372.75;4981500;28;20288;-61
2023/10/08 05:03:16;;;;;;;5.43;1.92;;;;;;;14.53;50.78;101368.47;4966966;28;20632;-60
2023/10/08 05:06:07;;;;;;;3.43;1.73;;;;;;;14.59;51.73;101373.63;4987815;28;20518;-61
2023/10/08 05:08:48;;;;;;;4.83;2.33;;;;;;;14.59;51.80;101370.13;4957218;28;20775;-60
2023/10/08 05:11:45;;;;;;;5.03;2.47;;;;;;;14.59;50.98;101371.00;4979707;28;20293;-61
2023/10/08 05:14:28;;;;;;;4.60;1.97;;;;;;;14.59;52.22;101371.00;4981155;28;20377;-61
2023/10/08 05:17:03;;;;;;;11.83;1.80;;;;;;;14.42;53.65;101330.91;4990325;28;20332;-62
2023/10/08 05:19:56;;;;;;;3.73;1.80;;;;;;;14.69;52.72;101370.88;4973148;28;20316;-61
2023/10/08 05:25:24;;;;;;;5.00;1.63;;;;;;;14.52;50.74;101374.56;4981744;28;21339;-61
2023/10/08 05:27:57;;;;;;;4.43;2.03;;;;;;;14.50;53.61;101371.09;4976529;28;21006;-62
2023/10/08 05:30:38;;;;;;;5.70;2.13;;;;;;;14.37;50.33;101380.06;4976280;28;20683;-62
2023/10/08 05:33:25;;;;;;;6.53;2.10;;;;;;;14.30;51.41;101370.53;4990859;28;20288;-63
2023/10/08 05:36:09;;;;;;;3.73;1.77;;;;;;;14.22;50.80;101376.75;4990334;28;20273;-63
2023/10/08 05:38:48;;;;;;;3.00;1.77;;;;;;;14.16;52.16;101382.09;4970715;28;20304;-63
2023/10/08 05:47:06;;;;;;;3.97;2.43;;;;;;;14.06;52.59;101375.25;4980377;28;20289;-63
2023/10/08 05:49:53;;;;;;;5.53;2.50;;;;;;;14.08;52.37;101370.84;4979461;28;20296;-62
2023/10/08 05:52:40;;;;;;;8.70;2.40;;;;;;;14.07;53.13;101371.72;4976490;28;20375;-62
2023/10/08 05:55:25;;;;;;;4.60;2.33;;;;;;;13.96;50.52;101378.88;4972410;28;20301;-63
2023/10/08 05:58:13;;;;;;;4.10;2.27;;;;;;;13.83;51.32;101378.16;4981036;28;20298;-63
2023/10/08 06:00:46;;;;;;;3.03;2.20;;;;;;;13.76;51.04;101385.22;4979894;28;20289;-64
2023/10/08 06:03:46;;;;;;;4.37;2.33;;;;;;;13.69;52.28;101386.19;4975608;28;20300;-64
2023/10/08 06:06:35;;;;;;;6.67;2.10;;;;;;;13.60;51.84;101388.91;4973792;28;20371;-63
2023/10/08 06:09:34;;;;;;;5.47;2.30;;;;;;;13.52;52.19;101388.13;4981359;28;20289;-62
2023/10/08 06:12:10;;;;;;;4.78;2.15;;;;;;;13.45;52.19;101381.19;4988320;28;20049;-62
2023/10/08 06:15:06;;;;;;;4.27;2.40;;;;;;;13.42;51.86;101386.47;4980340;28;20053;-61
2023/10/08 06:20:28;;;;;;;11.90;2.80;;;;;;;13.34;54.18;101384.81;4978894;28;20350;-61
2023/10/08 06:23:06;;;;;;;7.37;3.00;;;;;;;13.27;53.20;101383.13;4982039;28;20300;-63
2023/10/08 06:25:44;;;;;;;6.23;3.53;;;;;;;13.24;53.38;101392.75;4969792;28;20300;-63
2023/10/08 06:28:20;;;;;;;6.50;3.90;;;;;;;13.18;54.57;101393.69;4970902;28;20368;-63
2023/10/08 06:30:53;;;;;;;6.45;3.33;;;;;;;13.12;54.90;101393.72;4979681;28;20303;-64
2023/10/08 06:33:25;;;;;;;5.28;2.72;;;;;;;12.92;54.10;101373.78;4969728;28;20061;-64
2023/10/08 06:36:04;;;;;;;6.85;3.00;;;;;;;12.99;55.19;101394.72;4983280;28;20057;-64
2023/10/08 06:38:38;;;;;;;;;;;;;;;12.89;55.04;101392.16;4968895;28;20053;-61
2023/10/08 06:41:17;;;;;;;6.88;2.80;;;;;;;12.79;56.24;101390.50;4980514;28;19929;-63
2023/10/08 06:44:13;;;;;;;;;;;;;;;12.81;57.03;101388.75;4972717;28;20154;-62
2023/10/08 06:46:45;;;;;;;5.60;3.00;;;;;;;12.75;58.76;101386.16;4980704;28;19932;-62
2023/10/08 06:49:16;;;;;;;4.90;3.50;;;;;;;12.70;59.26;101380.06;4971281;28;20124;-61
2023/10/08 06:51:50;;;;;;;7.82;3.40;;;;;;;12.69;60.11;101384.44;4980202;28;20054;-62
2023/10/08 06:54:24;;;;;;;6.80;2.70;;;;;;;12.63;58.20;101386.22;4969478;28;20053;-62
2023/10/08 06:56:55;;;;;;;7.57;2.78;;;;;;;12.51;57.51;101389.84;4980357;28;20053;-63
2023/10/08 06:59:31;;;;;;;7.90;3.50;;;;;;;12.40;57.65;101387.25;4962520;28;20057;-62
2023/10/08 07:02:02;;;;;;;8.18;3.20;;;;;;;12.28;58.48;101382.09;4981618;28;20068;-62
2023/10/08 07:04:32;;;;;;;18.65;4.10;;;;;;;12.22;58.66;101382.13;4965386;28;20042;-63
2023/10/08 07:07:03;;;;;;;6.07;2.58;;;;;;;12.14;60.07;101378.69;4976233;28;20041;-63
2023/10/08 07:09:36;;;;;;;5.78;3.47;;;;;;;12.04;60.70;101383.97;4962507;28;20046;-62
2023/10/08 07:12:13;;;;;;;6.45;3.25;;;;;;;11.85;60.87;101379.63;4980528;28;20049;-65
2023/10/08 07:14:44;;;;;;;10.15;3.25;;;;;;;11.84;62.18;101391.00;4967209;28;20064;-63
2023/10/08 07:17:19;;;;;;;8.68;3.40;;;;;;;11.74;62.78;101387.53;4968121;28;20355;-63
2023/10/08 07:19:50;;;;;;;12.93;3.88;;;;;;;11.70;63.43;101390.16;4976898;28;20407;-65
2023/10/08 07:22:23;;;;;;;10.13;3.10;;;;;;;11.59;63.42;101385.84;4971742;28;20067;-64
2023/10/08 07:24:57;;;;;;;5.82;3.22;;;;;;;11.52;64.35;101389.34;4987529;28;20143;-65
2023/10/08 07:27:31;;;;;;;8.63;2.40;;;;;;;11.43;64.41;101389.34;4974918;28;20052;-65
2023/10/08 07:30:10;;;;;;;8.73;2.97;;;;;;;11.36;65.55;101385.03;4974936;28;20061;-64
2023/10/08 07:32:40;;;;;;;8.77;2.90;;;;;;;11.26;66.07;101391.13;4965149;28;20052;-64
2023/10/08 07:35:23;;;;;;;6.03;2.50;;;;;;;11.15;67.05;101384.16;4974976;28;20076;-64
2023/10/08 07:37:53;;;;;;;7.80;2.88;;;;;;;11.13;68.14;101396.38;4976245;28;20057;-64
2023/10/08 07:40:30;;;;;;;7.97;4.93;;;;;;;11.04;68.66;101406.84;4964453;28;20081;-64
2023/10/08 07:43:08;;;;;;;13.63;5.60;;;;;;;10.93;68.59;101403.34;4975012;28;20058;-65
2023/10/08 07:45:38;;;;;;;10.05;4.80;;;;;;;10.84;69.51;101398.13;4965214;28;20054;-64
2023/10/08 07:48:09;;;;;;;9.50;3.53;;;;;;;10.74;70.17;101408.56;4970741;28;20167;-67
2023/10/08 07:50:45;;;;;;;6.43;2.70;;;;;;;10.64;71.09;101404.19;4974829;28;20053;-65
2023/10/08 07:53:19;;;;;;;7.78;3.00;;;;;;;10.53;70.59;101414.63;4965761;28;20416;-64
2023/10/08 07:55:51;;;;;;;9.02;3.22;;;;;;;10.42;70.53;101410.25;4971244;28;20053;-64
2023/10/08 07:58:21;;;;;;;10.60;4.18;;;;;;;10.32;71.32;101415.44;4969925;28;20053;-65
2023/10/08 08:00:55;;;;;;;8.32;4.75;;;;;;;10.23;72.04;101410.13;4984350;28;20064;-67
2023/10/08 08:03:26;;;;;;;10.73;4.03;;;;;;;10.14;72.51;101415.34;4974004;28;20056;-67
2023/10/08 08:05:58;;;;;;;17.05;7.20;;;;;;;10.12;74.94;101415.34;4979938;28;20062;-70
2023/10/08 08:08:29;;;;;;;16.63;8.85;;;;;;;9.91;75.12;101418.75;4968198;28;20055;-68
2023/10/08 08:11:05;;;;;;;10.52;5.95;;;;;;;9.77;76.44;101425.63;4987643;28;20049;-65
2023/10/08 08:13:36;;;;;;;9.75;5.53;;;;;;;9.65;77.61;101425.53;4966893;28;20669;-64
2023/10/08 08:18:56;;;;;;;9.02;4.22;;;;;;;9.19;78.05;101378.31;4972589;28;20112;-67
2023/10/08 08:21:30;;;;;;;22.00;8.13;;;;;;;9.21;79.29;101418.28;4969563;28;20796;-65
2023/10/08 08:24:05;;;;;;;17.08;6.38;;;;;;;9.02;80.89;101428.56;4977550;28;20061;-65
2023/10/08 08:26:50;;;;;;;43.63;18.35;;;;;;;8.79;82.42;101428.38;4970015;28;20650;-65
2023/10/08 08:29:21;;;;;;;24.33;12.55;;;;;;;8.46;85.37;101425.41;4969691;28;20088;-64
2023/10/08 08:31:53;;;;;;;12.60;6.00;;;;;;;8.23;87.61;101428.59;4973391;28;20077;-63
2023/10/08 08:34:23;;;;;;;11.65;4.40;;;;;;;7.99;89.27;101429.19;4969907;28;20046;-62
2023/10/08 08:36:54;;;;;;;18.95;9.27;;;;;;;7.71;91.08;101433.09;4979062;28;20171;-66
2023/10/08 08:39:32;;;;;;;17.42;11.30;;;;;;;7.52;92.90;101437.19;4973813;28;20056;-65
2023/10/08 08:42:05;;;;;;;13.20;9.73;;;;;;;7.28;93.95;101424.69;4981577;28;20053;-65
2023/10/08 08:44:45;;;;;;;10.45;7.00;;;;;;;6.89;94.99;101385.09;4970036;28;20074;-63
2023/10/08 08:47:17;;;;;;;;;;;;;;;7.01;95.93;101430.28;4971673;28;20323;-64
2023/10/08 08:49:50;;;;;;;26.50;18.40;;;;;;;6.89;97.00;101437.06;4985104;28;19936;-65
2023/10/08 08:52:21;;;;;;;11.63;4.72;;;;;;;6.81;97.83;101436.00;4967310;28;20057;-63
2023/10/08 08:54:52;;;;;;;7.38;3.28;;;;;;;6.73;98.43;101426.34;4991063;28;20562;-64
2023/10/08 08:57:24;;;;;;;5.32;2.90;;;;;;;6.71;99.48;101434.09;4980246;28;20152;-64
2023/10/08 08:59:57;;;;;;;10.05;4.72;;;;;;;6.64;100.00;101437.44;4981851;28;20045;-63
2023/10/08 09:02:27;;;;;;;6.00;2.83;;;;;;;6.59;100.00;101436.47;4970333;28;20065;-62
2023/10/08 09:04:59;;;;;;;6.90;3.05;;;;;;;6.51;100.00;101440.66;4981344;28;20066;-63
2023/10/08 09:07:31;;;;;;;6.95;2.58;;;;;;;6.46;100.00;101435.38;4976843;28;20493;-64
2023/10/08 09:10:01;;;;;;;9.15;3.95;;;;;;;6.39;100.00;101442.19;4981786;28;20132;-63
2023/10/08 09:12:34;;;;;;;9.07;3.60;;;;;;;6.30;100.00;101439.41;4972745;28;21043;-63
2023/10/08 09:15:09;;;;;;;5.07;2.80;;;;;;;6.25;100.00;101441.03;4983984;28;20081;-63
2023/10/08 09:17:42;;;;;;;3.58;2.30;;;;;;;6.11;100.00;101403.53;4966411;28;20848;-64
2023/10/08 09:20:12;;;;;;;8.20;3.88;;;;;;;6.15;100.00;101431.31;4971225;28;20049;-62
2023/10/08 09:22:43;;;;;;;5.75;2.33;;;;;;;6.14;100.00;101435.63;4985205;28;20046;-64
2023/10/08 09:25:14;;;;;;;7.20;3.13;;;;;;;6.12;100.00;101431.25;4966514;28;20050;-64
2023/10/08 09:27:46;;;;;;;4.03;2.55;;;;;;;6.03;100.00;101427.59;4979862;28;20077;-62
2023/10/08 09:30:19;;;;;;;8.10;2.58;;;;;;;6.08;100.00;101437.22;4972899;28;20064;-65
2023/10/08 09:32:51;;;;;;;7.10;3.25;;;;;;;6.02;100.00;101425.88;4969764;28;20062;-64
2023/10/08 09:35:28;;;;;;;7.88;3.13;;;;;;;5.97;100.00;101430.06;4957688;28;20470;-65
2023/10/08 09:37:59;;;;;;;6.53;2.55;;;;;;;5.94;100.00;101442.09;4986967;28;20042;-64
2023/10/08 09:40:30;;;;;;;12.57;6.45;;;;;;;5.91;100.00;101437.69;4965372;28;20062;-63
2023/10/08 09:43:03;;;;;;;15.50;9.00;;;;;;;5.85;100.00;101427.19;4984411;28;20089;-62
2023/10/08 09:45:36;;;;;;;6.35;2.95;;;;;;;5.95;100.00;101433.50;4961073;28;20142;-63
2023/10/08 09:48:13;;;;;;;6.30;2.80;;;;;;;5.95;100.00;101436.94;4987003;28;20757;-66
2023/10/08 09:50:44;;;;;;;7.00;4.03;;;;;;;5.88;100.00;101437.63;4965207;28;20439;-64
2023/10/08 09:53:19;;;;;;;10.82;4.57;;;;;;;5.78;100.00;101428.75;4972122;28;20165;-66
2023/10/08 09:55:55;;;;;;;16.00;8.57;;;;;;;5.82;100.00;101427.13;4988254;28;20076;-64
2023/10/08 09:58:29;;;;;;;7.40;3.00;;;;;;;5.87;100.00;101430.69;4967303;28;20190;-64
2023/10/08 10:01:00;;;;;;;9.27;4.03;;;;;;;5.67;100.00;101413.84;4975868;28;20065;-64
2023/10/08 10:03:34;;;;;;;9.10;4.70;;;;;;;5.65;100.00;101413.78;4968752;28;20146;-64
2023/10/08 10:06:09;;;;;;;9.23;6.70;;;;;;;5.77;100.00;101442.59;4987321;28;20168;-63
2023/10/08 10:08:40;;;;;;;6.38;4.28;;;;;;;5.77;100.00;101428.75;4981728;28;20046;-63
2023/10/08 10:11:10;;;;;;;12.30;4.95;;;;;;;5.91;100.00;101442.88;4981225;28;20053;-66
2023/10/08 10:13:46;;;;;;;8.00;4.40;;;;;;;5.90;100.00;101430.75;4979181;28;20053;-63
2023/10/08 10:16:21;;;;;;;10.15;4.13;;;;;;;5.71;100.00;101405.25;4976494;28;20054;-64
2023/10/08 10:18:52;;;;;;;10.82;4.47;;;;;;;5.89;100.00;101444.59;4984776;28;20053;-65
2023/10/08 10:21:31;;;;;;;10.52;3.97;;;;;;;5.39;100.00;101374.31;4975369;28;20065;-65
2023/10/08 10:24:05;;;;;;;9.45;3.80;;;;;;;5.75;100.00;101446.00;4986278;28;20056;-64
2023/10/08 10:26:40;;;;;;;7.60;4.05;;;;;;;5.66;100.00;101444.06;4952174;28;20057;-65
2023/10/08 10:29:27;;;;;;;11.48;4.72;;;;;;;5.70;100.00;101439.81;4953688;28;20392;-64
2023/10/08 10:31:58;;;;;;;14.77;6.07;;;;;;;5.69;100.00;101440.66;4962191;28;20058;-63
2023/10/08 10:34:30;;;;;;;12.30;6.53;;;;;;;5.68;100.00;101450.16;4952633;28;20225;-65
2023/10/08 10:37:08;;;;;;;10.65;5.57;;;;;;;5.66;100.00;101450.97;4962463;28;20051;-65
2023/10/08 10:39:41;;;;;;;13.05;6.30;;;;;;;5.58;100.00;101448.19;4960451;28;20073;-65
2023/10/08 10:42:20;;;;;;;12.18;5.80;;;;;;;5.51;100.00;101439.38;4965073;28;20077;-63
2023/10/08 10:44:55;;;;;;;19.52;6.30;;;;;;;5.54;100.00;101442.06;4976931;28;20068;-64
2023/10/08 10:47:27;;;;;;;21.40;6.88;;;;;;;5.54;100.00;101452.44;4980673;28;20108;-66
2023/10/08 10:52:51;;;;;;;16.55;6.53;;;;;;;5.55;100.00;101454.19;4980827;28;20046;-65
2023/10/08 10:55:22;;;;;;;16.55;5.60;;;;;;;5.55;100.00;101459.38;4974506;28;20113;-64
2023/10/08 10:57:56;;;;;;;12.80;6.00;;;;;;;5.63;100.00;101457.81;4980220;28;20050;-64
2023/10/08 11:03:23;;;;;;;13.82;6.20;;;;;;;5.57;100.00;101447.31;4968480;28;20780;-66
2023/10/08 11:05:59;;;;;;;12.68;6.60;;;;;;;5.57;100.00;101457.69;4989958;28;20125;-66
2023/10/08 11:08:34;;;;;;;12.18;5.45;;;;;;;5.41;100.00;101446.06;4980889;28;20129;-66
2023/10/08 11:11:09;;;;;;;12.68;6.15;;;;;;;5.37;100.00;101438.22;4974371;28;20065;-66
2023/10/08 11:13:41;;;;;;;21.80;6.82;;;;;;;5.35;100.00;101450.25;4969867;28;20140;-65
2023/10/08 11:16:14;;;;;;;16.52;5.93;;;;;;;5.23;100.00;101449.97;4979809;28;20505;-65
2023/10/08 11:18:49;;;;;;;8.95;4.75;;;;;;;5.17;100.00;101451.56;4981198;28;20061;-66
2023/10/08 11:21:24;;;;;;;8.27;4.57;;;;;;;5.12;100.00;101447.97;4966972;28;20057;-65
2023/10/08 11:23:55;;;;;;;11.75;5.32;;;;;;;5.08;100.00;101451.31;4971268;28;20133;-65
2023/10/08 11:26:38;;;;;;;11.07;4.57;;;;;;;4.84;100.00;101419.63;4976055;28;20057;-65
2023/10/08 11:29:14;;;;;;;8.43;4.88;;;;;;;5.10;100.00;101449.66;4978483;28;20053;-65
2023/10/08 11:31:47;;;;;;;9.60;4.95;;;;;;;5.06;100.00;101447.81;4976120;28;20507;-65
2023/10/08 11:34:23;;;;;;;14.23;5.47;;;;;;;5.10;100.00;101444.47;4975292;28;20513;-65
2023/10/08 11:36:55;;;;;;;14.82;5.00;;;;;;;5.18;100.00;101445.53;4975076;28;20046;-65
2023/10/08 11:39:30;;;;;;;16.77;7.43;;;;;;;5.25;100.00;101453.47;4972793;28;20046;-65
2023/10/08 11:42:06;;;;;;;14.38;6.82;;;;;;;5.22;100.00;101458.53;4984827;28;20118;-64
2023/10/08 11:44:37;;;;;;;13.60;6.28;;;;;;;5.17;100.00;101456.75;4978685;28;20057;-65
2023/10/08 11:47:21;;;;;;;13.60;6.15;;;;;;;5.19;100.00;101455.06;4989303;28;20045;-64
2023/10/08 11:50:00;;;;;;;23.60;7.60;;;;;;;5.09;100.00;101440.13;4970198;28;20059;-65
2023/10/08 11:52:31;;;;;;;16.42;7.15;;;;;;;5.09;100.00;101458.28;4978474;28;20076;-68
2023/10/08 11:55:06;;;;;;;21.85;10.73;;;;;;;5.12;100.00;101450.56;4988272;28;20152;-65
2023/10/08 11:57:45;;;;;;;18.05;9.93;;;;;;;5.12;100.00;101453.16;4963551;28;20073;-68
2023/10/08 12:00:20;;;;;;;20.00;10.20;;;;;;;5.16;100.00;101449.78;4972330;28;20601;-65
2023/10/08 12:02:55;;;;;;;22.90;10.60;;;;;;;5.11;100.00;101435.84;4971015;28;20076;-64
2023/10/08 12:05:28;;;;;;;18.15;10.50;;;;;;;5.13;100.00;101444.53;4972747;28;20096;-67
2023/10/08 12:08:00;;;;;;;19.33;9.88;;;;;;;5.14;100.00;101451.50;4982362;28;20119;-65
2023/10/08 12:10:34;;;;;;;19.73;8.65;;;;;;;5.17;100.00;101436.00;4963417;28;20055;-66
2023/10/08 12:13:05;;;;;;;16.10;10.25;;;;;;;5.11;100.00;101441.03;4984535;28;20059;-67
2023/10/08 12:15:38;;;;;;;15.15;8.15;;;;;;;5.10;100.00;101439.28;4959368;28;20176;-66
2023/10/08 12:18:15;;;;;;;21.83;8.68;;;;;;;5.07;100.00;101444.41;4976183;28;20068;-65
2023/10/08 12:20:47;;;;;;;21.73;8.07;;;;;;;5.06;100.00;101437.44;4976701;28;20050;-63